createdAt,value
2022-08-03T00:00:24.349Z,99.90
2022-08-03T00:02:51.205Z,99.90
2022-08-03T00:05:17.971Z,99.90
2022-08-03T00:07:44.692Z,99.90
2022-08-03T00:10:11.382Z,99.90
2022-08-03T00:12:38.083Z,99.90
2022-08-03T00:15:10.521Z,99.90
2022-08-03T00:17:53.014Z,99.90
2022-08-03T00:20:21.315Z,99.90
2022-08-03T00:22:48.195Z,99.90
2022-08-03T00:25:14.915Z,99.90
2022-08-03T00:27:41.614Z,99.90
2022-08-03T00:30:08.508Z,99.90
2022-08-03T00:32:35.189Z,99.90
2022-08-03T00:35:07.062Z,99.90
2022-08-03T00:37:41.747Z,99.90
2022-08-03T00:40:10.444Z,99.90
2022-08-03T00:42:46.170Z,99.90
2022-08-03T00:45:12.862Z,99.90
2022-08-03T00:47:39.594Z,99.90
2022-08-03T00:50:06.493Z,99.90
2022-08-03T00:52:33.179Z,99.90
2022-08-03T00:55:00.709Z,99.90
2022-08-03T00:57:27.854Z,99.90
2022-08-03T00:59:54.619Z,99.90
2022-08-03T01:02:21.315Z,99.90
2022-08-03T01:04:48.010Z,99.90
2022-08-03T01:07:18.220Z,99.90
2022-08-03T01:10:05.163Z,99.90
2022-08-03T01:12:43.484Z,99.90
2022-08-03T01:15:10.162Z,99.90
2022-08-03T01:17:47.316Z,99.90
2022-08-03T01:20:14.664Z,99.90
2022-08-03T01:23:00.071Z,99.90
2022-08-03T01:25:59.011Z,99.90
2022-08-03T01:28:31.468Z,99.90
2022-08-03T01:30:59.105Z,99.90
2022-08-03T01:33:31.658Z,99.90
2022-08-03T01:36:02.243Z,99.90
2022-08-03T01:38:29.543Z,99.90
2022-08-03T01:40:56.418Z,99.90
2022-08-03T01:44:26.443Z,99.90
2022-08-03T01:46:14.829Z,99.90
2022-08-03T01:48:42.169Z,99.90
2022-08-03T01:51:09.193Z,99.90
2022-08-03T01:53:36.000Z,99.90
2022-08-03T01:56:02.712Z,99.90
2022-08-03T01:58:29.399Z,99.90
2022-08-03T02:00:59.504Z,99.90
2022-08-03T02:03:26.277Z,99.90
2022-08-03T02:06:11.530Z,99.90
2022-08-03T02:08:40.052Z,99.90
2022-08-03T02:11:07.091Z,99.90
2022-08-03T02:13:34.434Z,99.90
2022-08-03T02:16:01.831Z,99.90
2022-08-03T02:18:28.528Z,99.90
2022-08-03T02:20:55.214Z,99.90
2022-08-03T02:23:21.911Z,99.90
2022-08-03T02:25:50.420Z,99.90
2022-08-03T02:28:17.760Z,99.90
2022-08-03T02:30:45.802Z,99.90
2022-08-03T02:33:19.930Z,99.90
2022-08-03T02:35:47.243Z,99.90
2022-08-03T02:38:13.967Z,99.90
2022-08-03T02:40:40.697Z,99.90
2022-08-03T02:43:11.019Z,99.90
2022-08-03T02:45:45.390Z,99.90
2022-08-03T02:48:12.406Z,99.90
2022-08-03T02:50:39.087Z,99.90
2022-08-03T02:53:05.798Z,99.90
2022-08-03T02:55:33.821Z,99.90
2022-08-03T02:58:01.436Z,99.90
2022-08-03T03:00:28.788Z,99.90
2022-08-03T03:02:57.132Z,99.90
2022-08-03T03:05:54.547Z,99.90
2022-08-03T03:08:17.744Z,99.90
2022-08-03T03:10:45.714Z,99.90
2022-08-03T03:13:12.429Z,99.90
2022-08-03T03:15:39.424Z,99.90
2022-08-03T03:18:06.471Z,99.90
2022-08-03T03:20:33.894Z,99.90
2022-08-03T03:23:01.024Z,99.90
2022-08-03T03:25:31.089Z,99.90
2022-08-03T03:27:58.200Z,99.90
2022-08-03T03:30:25.232Z,99.90
2022-08-03T03:32:52.676Z,99.90
2022-08-03T03:35:19.461Z,99.90
2022-08-03T03:37:46.230Z,99.90
2022-08-03T03:40:12.913Z,99.90
2022-08-03T03:42:39.669Z,99.90
2022-08-03T03:45:06.852Z,99.90
2022-08-03T03:47:36.727Z,99.90
2022-08-03T03:50:03.990Z,99.90
2022-08-03T03:52:31.447Z,99.90
2022-08-03T03:55:00.979Z,99.90
2022-08-03T03:57:28.215Z,99.90
2022-08-03T03:59:54.944Z,99.90
2022-08-03T04:02:21.625Z,99.90
2022-08-03T04:05:07.149Z,99.90
2022-08-03T04:07:57.705Z,99.90
2022-08-03T04:10:43.514Z,99.90
2022-08-03T04:13:10.773Z,99.90
2022-08-03T04:15:38.314Z,99.90
2022-08-03T04:18:05.036Z,99.70
2022-08-03T04:20:32.150Z,96.90
2022-08-03T04:23:00.259Z,94.60
2022-08-03T04:25:28.124Z,92.60
2022-08-03T04:28:20.941Z,91.20
2022-08-03T04:30:47.610Z,88.20
2022-08-03T04:33:14.812Z,82.90
2022-08-03T04:35:58.641Z,80.50
2022-08-03T04:38:30.419Z,76.70
2022-08-03T04:40:57.140Z,74.80
2022-08-03T04:43:23.858Z,73.30
2022-08-03T04:45:50.554Z,73.10
2022-08-03T04:48:17.432Z,71.70
2022-08-03T04:50:44.156Z,70.00
2022-08-03T04:53:10.867Z,69.40
2022-08-03T04:55:37.572Z,67.10
2022-08-03T04:58:04.446Z,67.20
2022-08-03T05:00:31.173Z,65.60
2022-08-03T05:02:57.954Z,64.50
2022-08-03T05:05:24.707Z,64.50
2022-08-03T05:07:51.451Z,64.60
2022-08-03T05:10:19.860Z,62.70
2022-08-03T05:12:48.099Z,62.30
2022-08-03T05:15:14.825Z,61.10
2022-08-03T05:17:41.597Z,61.20
2022-08-03T05:20:08.789Z,61.60
2022-08-03T05:22:35.561Z,62.20
2022-08-03T05:25:02.436Z,62.00
2022-08-03T05:27:29.196Z,62.30
2022-08-03T05:29:55.967Z,60.20
2022-08-03T05:32:42.654Z,59.50
2022-08-03T05:36:00.983Z,59.50
2022-08-03T05:37:56.157Z,58.30
2022-08-03T05:40:22.884Z,57.60
2022-08-03T05:42:49.926Z,57.10
2022-08-03T05:45:18.594Z,56.30
2022-08-03T05:47:45.841Z,54.30
2022-08-03T05:50:12.856Z,52.70
2022-08-03T05:52:40.045Z,52.00
2022-08-03T05:55:07.057Z,51.10
2022-08-03T05:57:33.899Z,50.40
2022-08-03T06:00:00.706Z,50.00
2022-08-03T06:02:27.567Z,49.60
2022-08-03T06:04:54.574Z,49.30
2022-08-03T06:07:21.298Z,49.40
2022-08-03T06:10:33.802Z,49.30
2022-08-03T06:12:36.298Z,49.00
2022-08-03T06:15:04.053Z,48.40
2022-08-03T06:17:37.717Z,48.60
2022-08-03T06:20:05.579Z,47.90
2022-08-03T06:22:32.301Z,47.50
2022-08-03T06:24:59.007Z,46.70
2022-08-03T06:27:37.263Z,46.50
2022-08-03T06:30:04.823Z,45.80
2022-08-03T06:32:31.545Z,46.00
2022-08-03T06:34:58.265Z,46.30
2022-08-03T06:37:24.981Z,45.80
2022-08-03T06:39:51.817Z,45.70
2022-08-03T06:42:18.631Z,45.70
2022-08-03T06:44:47.419Z,45.00
2022-08-03T06:47:14.126Z,44.30
2022-08-03T06:49:41.711Z,43.90
2022-08-03T06:52:08.493Z,43.50
2022-08-03T06:54:35.967Z,43.10
2022-08-03T06:57:03.625Z,43.80
2022-08-03T07:00:09.189Z,43.10
2022-08-03T07:02:19.439Z,43.20
2022-08-03T07:04:47.383Z,42.00
2022-08-03T07:07:14.140Z,42.00
2022-08-03T07:09:40.850Z,41.70
2022-08-03T07:12:08.644Z,40.90
2022-08-03T07:14:35.354Z,40.20
2022-08-03T07:17:04.727Z,39.90
2022-08-03T07:19:38.720Z,39.20
2022-08-03T07:22:05.455Z,39.20
2022-08-03T07:24:32.157Z,38.40
2022-08-03T07:26:58.880Z,38.40
2022-08-03T07:29:25.575Z,37.70
2022-08-03T07:31:52.319Z,37.30
2022-08-03T07:34:19.019Z,37.20
2022-08-03T07:36:45.744Z,37.40
2022-08-03T07:39:15.388Z,37.20
2022-08-03T07:41:44.822Z,36.50
2022-08-03T07:44:11.564Z,37.30
2022-08-03T07:46:38.299Z,37.70
2022-08-03T07:49:05.452Z,37.30
2022-08-03T07:51:32.210Z,37.40
2022-08-03T07:54:00.813Z,36.80
2022-08-03T07:56:28.291Z,36.80
2022-08-03T07:58:55.016Z,37.10
2022-08-03T08:01:22.365Z,36.90
2022-08-03T08:03:53.074Z,36.70
2022-08-03T08:06:20.591Z,36.30
2022-08-03T08:08:47.395Z,35.70
2022-08-03T08:11:14.153Z,35.50
2022-08-03T08:13:40.864Z,35.70
2022-08-03T08:16:07.594Z,35.30
2022-08-03T08:18:34.558Z,34.90
2022-08-03T08:21:03.295Z,35.10
2022-08-03T08:23:42.076Z,33.20
2022-08-03T08:26:10.521Z,33.00
2022-08-03T08:28:37.222Z,34.90
2022-08-03T08:31:04.009Z,34.20
2022-08-03T08:33:54.292Z,34.20
2022-08-03T08:36:17.641Z,34.40
2022-08-03T08:38:45.198Z,35.00
2022-08-03T08:41:12.521Z,33.80
2022-08-03T08:43:39.232Z,33.80
2022-08-03T08:46:08.361Z,34.20
2022-08-03T08:48:35.918Z,33.00
2022-08-03T08:51:02.621Z,33.00
2022-08-03T08:53:29.436Z,32.60
2022-08-03T08:56:00.947Z,32.60
2022-08-03T08:58:34.739Z,32.60
2022-08-03T09:01:01.687Z,32.50
2022-08-03T09:03:29.987Z,32.40
2022-08-03T09:06:00.740Z,33.10
2022-08-03T09:08:27.614Z,33.30
2022-08-03T09:10:54.325Z,33.30
2022-08-03T09:13:21.019Z,33.10
2022-08-03T09:16:00.646Z,31.70
2022-08-03T09:18:29.315Z,31.50
2022-08-03T09:21:34.986Z,31.40
2022-08-03T09:24:04.875Z,31.10
2022-08-03T09:26:33.666Z,30.60
2022-08-03T09:29:05.694Z,30.30
2022-08-03T09:31:36.264Z,30.30
2022-08-03T09:34:06.785Z,29.60
2022-08-03T09:36:39.706Z,30.10
2022-08-03T09:39:19.415Z,30.00
2022-08-03T09:41:46.937Z,29.50
2022-08-03T09:44:24.694Z,29.70
2022-08-03T09:46:53.860Z,29.80
2022-08-03T09:49:20.625Z,29.90
2022-08-03T09:52:31.861Z,29.90
2022-08-03T09:54:34.391Z,30.50
2022-08-03T09:57:01.241Z,31.10
2022-08-03T09:59:31.527Z,31.90
2022-08-03T10:01:58.629Z,32.20
2022-08-03T10:04:25.574Z,32.60
2022-08-03T10:07:10.809Z,33.30
2022-08-03T10:09:37.671Z,32.80
2022-08-03T10:12:08.084Z,33.90
2022-08-03T10:14:35.654Z,35.40
2022-08-03T10:17:02.355Z,36.30
2022-08-03T10:19:29.052Z,36.50
2022-08-03T10:21:56.933Z,36.80
2022-08-03T10:24:25.364Z,38.20
2022-08-03T10:26:52.059Z,38.40
2022-08-03T10:29:21.063Z,37.80
2022-08-03T10:31:54.545Z,39.00
2022-08-03T10:34:29.154Z,39.40
2022-08-03T10:36:57.226Z,39.60
2022-08-03T10:39:25.361Z,39.80
2022-08-03T10:41:52.065Z,39.50
2022-08-03T10:44:20.522Z,39.00
2022-08-03T10:46:47.590Z,39.10
2022-08-03T10:49:21.450Z,39.00
2022-08-03T10:52:01.725Z,39.10
2022-08-03T10:54:35.553Z,40.10
2022-08-03T10:57:20.606Z,40.00
2022-08-03T10:59:47.409Z,40.00
2022-08-03T11:02:14.601Z,39.30
2022-08-03T11:04:41.443Z,40.00
2022-08-03T11:07:17.701Z,39.70
2022-08-03T11:09:48.640Z,39.80
2022-08-03T11:12:21.993Z,39.70
2022-08-03T11:14:58.200Z,39.80
2022-08-03T11:17:25.023Z,39.40
2022-08-03T11:19:57.512Z,39.70
2022-08-03T11:22:25.186Z,39.60
2022-08-03T11:24:54.162Z,39.70
2022-08-03T11:27:22.744Z,40.40
2022-08-03T11:30:08.344Z,40.20
2022-08-03T11:32:37.847Z,38.80
2022-08-03T11:35:08.674Z,39.00
2022-08-03T11:37:35.578Z,39.40
2022-08-03T11:40:03.083Z,39.20
2022-08-03T11:42:36.522Z,39.30
2022-08-03T11:45:03.856Z,39.30
2022-08-03T11:47:30.554Z,39.00
2022-08-03T11:49:59.150Z,40.10
2022-08-03T11:52:27.122Z,40.10
2022-08-03T11:54:56.730Z,39.10
2022-08-03T11:59:16.399Z,38.90
2022-08-03T12:00:20.836Z,38.80
2022-08-03T12:02:54.484Z,39.00
2022-08-03T12:05:21.211Z,38.00
2022-08-03T12:08:02.613Z,38.10
2022-08-03T12:10:31.227Z,39.10
2022-08-03T12:12:58.409Z,39.30
2022-08-03T12:15:28.724Z,39.20
2022-08-03T12:17:57.859Z,38.60
2022-08-03T12:20:34.510Z,38.70
2022-08-03T12:23:02.342Z,38.50
2022-08-03T12:25:39.580Z,38.00
2022-08-03T12:28:28.354Z,38.70
2022-08-03T12:31:03.980Z,39.10
2022-08-03T12:33:30.872Z,39.00
2022-08-03T12:36:04.371Z,39.10
2022-08-03T12:38:31.829Z,39.60
2022-08-03T12:41:04.590Z,39.10
2022-08-03T12:43:37.982Z,38.80
2022-08-03T12:46:09.543Z,39.20
2022-08-03T12:48:36.259Z,39.50
2022-08-03T12:51:09.898Z,39.30
2022-08-03T12:53:36.742Z,39.50
2022-08-03T12:56:06.072Z,38.30
2022-08-03T12:58:34.633Z,38.30
2022-08-03T13:01:04.779Z,38.90
2022-08-03T13:03:42.827Z,38.70
2022-08-03T13:06:17.127Z,39.10
2022-08-03T13:08:44.426Z,39.40
2022-08-03T13:11:55.760Z,39.40
2022-08-03T13:14:19.456Z,38.40
2022-08-03T13:16:47.386Z,38.80
2022-08-03T13:19:15.233Z,38.20
2022-08-03T13:22:01.748Z,38.20
2022-08-03T13:24:29.753Z,38.30
2022-08-03T13:26:57.250Z,37.90
2022-08-03T13:29:23.949Z,37.40
2022-08-03T13:31:51.282Z,37.10
2022-08-03T13:34:22.912Z,37.50
2022-08-03T13:37:08.471Z,37.60
2022-08-03T13:39:58.279Z,37.10
2022-08-03T13:42:23.025Z,37.20
2022-08-03T13:44:49.768Z,36.20
2022-08-03T13:47:16.477Z,36.60
2022-08-03T13:49:53.976Z,37.30
2022-08-03T13:52:26.048Z,37.40
2022-08-03T13:54:52.797Z,37.70
2022-08-03T13:58:04.669Z,37.50
2022-08-03T14:00:06.756Z,37.60
2022-08-03T14:02:33.576Z,37.50
2022-08-03T14:05:00.323Z,37.30
2022-08-03T14:07:27.093Z,36.60
2022-08-03T14:09:53.780Z,37.30
2022-08-03T14:12:20.568Z,36.60
2022-08-03T14:14:47.319Z,37.10
2022-08-03T14:17:14.007Z,37.30
2022-08-03T14:19:53.301Z,36.60
2022-08-03T14:22:21.035Z,37.00
2022-08-03T14:24:47.741Z,37.00
2022-08-03T14:27:16.355Z,36.80
2022-08-03T14:29:43.100Z,37.10
2022-08-03T14:32:13.320Z,36.70
2022-08-03T14:34:40.514Z,36.30
2022-08-03T14:37:07.948Z,36.90
2022-08-03T14:42:21.770Z,36.30
2022-08-03T14:44:48.539Z,36.70
2022-08-03T14:47:15.294Z,36.60
2022-08-03T14:50:38.828Z,37.00
2022-08-03T14:52:28.893Z,37.60
2022-08-03T14:54:55.602Z,37.50
2022-08-03T14:57:22.478Z,37.10
2022-08-03T14:59:55.515Z,37.00
2022-08-03T15:02:24.702Z,36.40
2022-08-03T15:04:51.942Z,36.80
2022-08-03T15:07:19.131Z,37.20
2022-08-03T15:09:46.140Z,37.40
2022-08-03T15:12:13.015Z,36.90
2022-08-03T15:14:39.695Z,36.90
2022-08-03T15:17:06.474Z,37.10
2022-08-03T15:20:01.173Z,37.30
2022-08-03T15:22:20.653Z,37.30
2022-08-03T15:24:51.816Z,37.80
2022-08-03T15:27:18.811Z,37.80
2022-08-03T15:30:09.659Z,38.00
2022-08-03T15:32:33.548Z,37.80
2022-08-03T15:35:00.715Z,37.30
2022-08-03T15:37:27.762Z,37.80
2022-08-03T15:40:00.070Z,37.60
2022-08-03T15:42:30.663Z,38.40
2022-08-03T15:44:57.447Z,38.90
2022-08-03T15:47:24.222Z,39.00
2022-08-03T15:49:50.933Z,38.50
2022-08-03T15:52:17.647Z,38.00
2022-08-03T15:54:44.350Z,37.90
2022-08-03T15:57:11.049Z,37.80
2022-08-03T15:59:37.751Z,37.70
2022-08-03T16:02:04.571Z,38.00
2022-08-03T16:04:31.472Z,38.20
2022-08-03T16:06:58.178Z,38.10
2022-08-03T16:09:43.385Z,38.50
2022-08-03T16:12:15.734Z,38.50
2022-08-03T16:14:52.525Z,38.80
2022-08-03T16:17:20.535Z,38.80
2022-08-03T16:19:47.568Z,39.00
2022-08-03T16:22:14.505Z,38.90
2022-08-03T16:24:41.432Z,39.30
2022-08-03T16:27:36.825Z,38.90
2022-08-03T16:29:54.982Z,38.90
2022-08-03T16:32:22.201Z,39.40
2022-08-03T16:34:48.896Z,39.60
2022-08-03T16:37:37.789Z,39.50
2022-08-03T16:40:02.560Z,39.60
2022-08-03T16:42:29.401Z,39.50
2022-08-03T16:44:56.130Z,39.70
2022-08-03T16:47:23.119Z,39.60
2022-08-03T16:49:54.323Z,39.90
2022-08-03T16:52:22.849Z,39.90
2022-08-03T16:54:52.524Z,40.10
2022-08-03T16:57:55.752Z,40.50
2022-08-03T17:00:07.102Z,40.40
2022-08-03T17:02:33.959Z,40.30
2022-08-03T17:05:03.541Z,40.70
2022-08-03T17:07:30.561Z,40.50
2022-08-03T17:09:57.263Z,40.90
2022-08-03T17:12:26.945Z,41.00
2022-08-03T17:14:54.109Z,41.00
2022-08-03T17:17:26.810Z,41.00
2022-08-03T17:19:55.195Z,41.00
2022-08-03T17:22:23.432Z,41.10
2022-08-03T17:24:51.004Z,41.50
2022-08-03T17:28:50.673Z,41.20
2022-08-03T17:30:07.686Z,41.50
2022-08-03T17:32:36.789Z,41.40
2022-08-03T17:35:09.328Z,41.70
2022-08-03T17:37:57.513Z,41.40
2022-08-03T17:40:23.844Z,41.60
2022-08-03T17:42:50.995Z,41.50
2022-08-03T17:45:17.901Z,41.50
2022-08-03T17:47:45.640Z,41.80
2022-08-03T17:50:26.111Z,42.20
2022-08-03T17:53:24.389Z,41.80
2022-08-03T17:56:04.558Z,41.80
2022-08-03T17:58:38.602Z,42.00
2022-08-03T18:02:01.806Z,42.10
2022-08-03T18:04:13.636Z,42.10
2022-08-03T18:06:56.811Z,42.20
2022-08-03T18:10:03.805Z,42.30
2022-08-03T18:12:14.491Z,42.50
2022-08-03T18:14:57.707Z,42.70
2022-08-03T18:17:55.736Z,42.80
2022-08-03T18:20:34.370Z,43.00
2022-08-03T18:23:04.882Z,43.30
2022-08-03T18:25:42.676Z,43.70
2022-08-03T18:28:16.120Z,44.00
2022-08-03T18:30:54.411Z,44.50
2022-08-03T18:34:16.705Z,44.90
2022-08-03T18:36:09.552Z,45.60
2022-08-03T18:38:38.522Z,45.70
2022-08-03T18:41:12.923Z,46.40
2022-08-03T18:43:46.620Z,46.80
2022-08-03T18:46:28.632Z,47.40
2022-08-03T18:48:59.435Z,47.90
2022-08-03T18:54:59.110Z,48.70
2022-08-03T18:57:13.273Z,49.10
2022-08-03T19:00:16.212Z,49.60
2022-08-03T19:03:12.459Z,49.90
2022-08-03T19:06:02.760Z,50.10
2022-08-03T19:08:50.688Z,50.30
2022-08-03T19:11:20.854Z,50.50
2022-08-03T19:13:56.617Z,50.70
2022-08-03T19:16:34.778Z,51.00
2022-08-03T19:19:02.188Z,51.10
2022-08-03T19:21:29.655Z,51.30
2022-08-03T19:23:59.549Z,51.80
2022-08-03T19:26:30.118Z,52.20
2022-08-03T19:28:58.212Z,52.70
2022-08-03T19:31:25.167Z,52.90
2022-08-03T19:33:58.805Z,53.20
2022-08-03T19:36:28.708Z,53.20
2022-08-03T19:38:55.920Z,53.70
2022-08-03T19:41:23.938Z,54.30
2022-08-03T19:43:58.463Z,54.50
2022-08-03T19:46:30.505Z,54.80
2022-08-03T19:49:04.824Z,54.90
2022-08-03T19:51:58.855Z,54.80
2022-08-03T19:54:29.710Z,55.00
2022-08-03T19:56:58.939Z,55.30
2022-08-03T19:59:26.457Z,55.80
2022-08-03T20:01:53.259Z,56.30
2022-08-03T20:04:21.467Z,56.90
2022-08-03T20:06:49.613Z,57.20
2022-08-03T20:09:16.483Z,57.60
2022-08-03T20:11:43.772Z,57.60
2022-08-03T20:14:12.140Z,57.70
2022-08-03T20:16:47.754Z,58.00
2022-08-03T20:19:16.725Z,57.90
2022-08-03T20:21:47.172Z,58.10
2022-08-03T20:24:24.422Z,58.20
2022-08-03T20:30:06.415Z,58.40
2022-08-03T20:32:34.389Z,58.60
2022-08-03T20:35:01.107Z,58.90
2022-08-03T20:37:27.902Z,59.10
2022-08-03T20:39:57.313Z,59.40
2022-08-03T20:42:24.719Z,59.60
2022-08-03T20:45:06.216Z,59.70
2022-08-03T20:47:50.449Z,60.00
2022-08-03T20:50:17.829Z,60.40
2022-08-03T20:52:49.638Z,60.70
2022-08-03T20:55:16.874Z,61.00
2022-08-03T20:57:49.264Z,61.20
2022-08-03T21:00:21.990Z,61.50
2022-08-03T21:02:48.934Z,61.60
2022-08-03T21:05:15.639Z,61.80
2022-08-03T21:08:05.301Z,61.90
2022-08-03T21:10:34.009Z,62.10
2022-08-03T21:13:00.575Z,48.30
2022-08-03T21:13:12.229Z,58.30
2022-08-03T21:13:16.848Z,62.20
2022-08-03T21:16:11.565Z,62.50
2022-08-03T21:18:35.339Z,62.70
2022-08-03T21:21:02.068Z,62.80
2022-08-03T21:23:35.088Z,63.20
2022-08-03T21:26:15.226Z,63.50
2022-08-03T21:28:41.934Z,63.80
2022-08-03T21:31:09.231Z,64.00
2022-08-03T21:33:35.927Z,64.10
2022-08-03T21:36:02.791Z,64.30
2022-08-03T21:38:30.528Z,64.40
2022-08-03T21:40:57.350Z,64.70
2022-08-03T21:43:24.062Z,65.10
2022-08-03T21:45:54.742Z,65.50
2022-08-03T21:48:21.670Z,65.70
2022-08-03T21:50:48.718Z,65.80
2022-08-03T21:53:15.415Z,65.80
2022-08-03T21:55:43.391Z,65.70
2022-08-03T21:58:10.096Z,65.80
2022-08-03T22:00:36.801Z,65.90
2022-08-03T22:03:15.298Z,65.90
2022-08-03T22:05:44.611Z,66.20
2022-08-03T22:08:12.621Z,66.40
2022-08-03T22:10:39.352Z,66.70
2022-08-03T22:13:06.163Z,67.00
2022-08-03T22:15:32.874Z,67.40
2022-08-03T22:18:03.392Z,67.40
2022-08-03T22:20:30.293Z,67.50
2022-08-03T22:22:58.765Z,67.40
2022-08-03T22:25:27.373Z,67.90
2022-08-03T22:27:54.174Z,68.10
2022-08-03T22:30:20.937Z,68.20
2022-08-03T22:32:48.020Z,68.70
2022-08-03T22:35:14.884Z,69.00
2022-08-03T22:37:41.876Z,68.90
2022-08-03T22:40:09.726Z,68.90
2022-08-03T22:42:36.586Z,68.80
2022-08-03T22:45:04.600Z,68.90
2022-08-03T22:47:32.406Z,68.90
2022-08-03T22:50:31.452Z,69.00
2022-08-03T22:52:45.918Z,69.00
2022-08-03T22:55:13.494Z,69.00
2022-08-03T22:57:56.125Z,69.20
2022-08-03T23:00:23.263Z,69.20
2022-08-03T23:02:50.005Z,69.50
2022-08-03T23:06:01.435Z,69.70
2022-08-03T23:08:04.370Z,69.90
2022-08-03T23:10:31.061Z,70.30
2022-08-03T23:12:57.842Z,70.70
2022-08-03T23:15:24.530Z,71.30
2022-08-03T23:17:58.035Z,71.70
2022-08-03T23:20:26.517Z,71.80
2022-08-03T23:22:54.632Z,71.90
2022-08-03T23:25:22.086Z,72.00
2022-08-03T23:27:49.142Z,72.30
2022-08-03T23:30:33.044Z,72.50
2022-08-03T23:32:59.723Z,72.80
2022-08-03T23:36:27.533Z,73.00
2022-08-03T23:38:34.427Z,73.50
2022-08-03T23:41:02.128Z,74.00
2022-08-03T23:43:45.119Z,74.40
2022-08-03T23:46:19.907Z,74.50
2022-08-03T23:48:46.639Z,74.80
2022-08-03T23:51:14.575Z,75.10
2022-08-03T23:53:41.603Z,75.20
2022-08-03T23:56:11.403Z,75.50
2022-08-03T23:58:44.010Z,76.10
